Time;durP1;ratioP1;P1;durP2;ratioP2;P2;SDS_P1;SDS_P2;PMS_P1;PMS_P2;Temp;Humidity;BMP_temperature;BMP_pressure;BME280_temperature;BME280_humidity;BME280_pressure;Samples;Min_cycle;Max_cycle;Signal;HPM_P1;HPM_P2
2023/09/28 00:02:00;;;;;;;;;;;;;;;18.06;63.35;95387.38;5134289;28;963;-55
2023/09/28 00:04:27;;;;;;;;;;;;;;;18.31;61.87;95394.97;5134022;28;1058;-55
2023/09/28 00:06:53;;;;;;;;;;;;;;;18.46;61.17;95383.97;5134111;28;1918;-55
2023/09/28 00:09:19;;;;;;;;;;;;;;;18.70;58.43;95383.41;5133716;28;1035;-55
2023/09/28 00:11:46;;;;;;;;;;;;;;;18.62;60.78;95380.88;5133846;28;1039;-55
2023/09/28 00:14:12;;;;;;;;;;;;;;;18.21;62.78;95386.38;5133981;28;998;-55
2023/09/28 00:16:38;;;;;;;;;;;;;;;17.89;64.43;95383.34;5133840;28;1063;-55
2023/09/28 00:19:08;;;;;;;;;;;;;;;17.73;64.25;95385.31;5133705;28;975;-55
2023/09/28 00:21:34;;;;;;;;;;;;;;;17.61;65.23;95389.63;5134327;28;987;-54
2023/09/28 00:24:02;;;;;;;;;;;;;;;17.43;66.44;95390.13;5133694;27;979;-55
2023/09/28 00:26:28;;;;;;;;;;;;;;;17.45;65.65;95389.94;5135761;27;2490;-55
2023/09/28 00:28:54;;;;;;;;;;;;;;;17.24;67.57;95388.94;5137747;27;963;-55
2023/09/28 00:31:20;;;;;;;;;;;;;;;17.23;67.28;95381.88;5137280;27;1040;-55
2023/09/28 00:33:46;;;;;;;;;;;;;;;17.29;67.04;95394.59;5137322;27;1017;-55
2023/09/28 00:36:12;;;;;;;;;;;;;;;17.33;66.95;95382.38;5137248;27;1059;-55
2023/09/28 00:38:38;;;;;;;;;;;;;;;17.35;66.50;95383.00;5135250;27;2501;-54
2023/09/28 00:41:04;;;;;;;;;;;;;;;17.58;65.73;95376.50;5116627;28;1044;-54
2023/09/28 00:43:30;;;;;;;;;;;;;;;17.98;63.08;95373.19;5116476;28;1967;-55
2023/09/28 00:45:56;;;;;;;;;;;;;;;18.19;61.65;95370.34;5116502;28;1992;-55
2023/09/28 00:48:22;;;;;;;;;;;;;;;18.24;62.15;95372.47;5116566;28;1109;-55
2023/09/28 00:50:49;;;;;;;;;;;;;;;18.17;62.58;95375.13;5116567;28;949;-55
2023/09/28 00:53:14;;;;;;;;;;;;;;;17.92;63.51;95374.81;5116240;28;988;-55
2023/09/28 00:55:42;;;;;;;;;;;;;;;17.55;64.46;95374.22;5116608;28;1029;-55
2023/09/28 00:58:09;;;;;;;;;;;;;;;17.25;66.77;95374.41;5119305;27;1205;-55
2023/09/28 01:00:36;;;;;;;;;;;;;;;16.95;68.15;95373.78;5136808;27;1098;-55
2023/09/28 01:03:05;;;;;;;;;;;;;;;16.83;69.41;95378.88;5136923;27;1023;-55
2023/09/28 01:05:38;;;;;;;;;;;;;;;16.75;69.87;95378.97;5136385;27;1914;-55
2023/09/28 01:08:09;;;;;;;;;;;;;;;16.65;70.64;95386.56;5136710;27;1028;-55
2023/09/28 01:10:36;;;;;;;;;;;;;;;16.45;72.02;95380.94;5136930;27;1005;-54
2023/09/28 01:13:07;;;;;;;;;;;;;;;16.31;72.99;95372.72;5136764;27;959;-55
2023/09/28 01:15:33;;;;;;;;;;;;;;;16.33;72.92;95370.69;5136481;27;1032;-55
2023/09/28 01:17:59;;;;;;;;;;;;;;;16.27;73.18;95381.41;5136606;27;969;-55
2023/09/28 01:20:30;;;;;;;;;;;;;;;16.10;73.52;95373.53;5136321;27;1052;-55
2023/09/28 01:22:56;;;;;;;;;;;;;;;16.00;74.07;95375.69;5136660;27;1026;-55
2023/09/28 01:25:22;;;;;;;;;;;;;;;15.85;74.90;95380.28;5136190;27;1992;-54
2023/09/28 01:27:48;;;;;;;;;;;;;;;15.80;74.99;95375.44;5136465;27;1012;-54
2023/09/28 01:30:14;;;;;;;;;;;;;;;15.71;75.07;95385.47;5136214;27;1982;-54
2023/09/28 01:32:42;;;;;;;;;;;;;;;15.43;76.50;95385.28;5136196;27;1036;-54
2023/09/28 01:35:08;;;;;;;;;;;;;;;15.65;75.87;95386.22;5136014;27;973;-55
2023/09/28 01:37:46;;;;;;;;;;;;;;;16.08;73.29;95385.53;5136406;27;992;-54
2023/09/28 01:40:13;;;;;;;;;;;;;;;16.31;71.70;95396.16;5136008;27;913;-54
2023/09/28 01:42:39;;;;;;;;;;;;;;;16.36;72.49;95399.13;5136113;27;1008;-55
2023/09/28 01:45:06;;;;;;;;;;;;;;;16.51;71.49;95399.09;5135954;27;1975;-55
2023/09/28 01:47:32;;;;;;;;;;;;;;;16.59;71.45;95390.88;5135696;27;1969;-55
2023/09/28 01:49:59;;;;;;;;;;;;;;;16.54;71.31;95394.16;5117598;27;1025;-54
2023/09/28 01:52:25;;;;;;;;;;;;;;;16.37;72.15;95393.56;5135716;27;1024;-55
2023/09/28 01:54:51;;;;;;;;;;;;;;;16.00;73.46;95395.41;5136083;27;971;-54
2023/09/28 01:57:17;;;;;;;;;;;;;;;15.81;73.81;95396.81;5135957;27;1023;-55
2023/09/28 01:59:43;;;;;;;;;;;;;;;16.06;72.56;95382.19;5119540;27;1161;-54
2023/09/28 02:02:10;;;;;;;;;;;;;;;16.64;68.94;95382.16;5115021;28;1056;-54
2023/09/28 02:04:37;;;;;;;;;;;;;;;17.06;67.25;95391.31;5115145;28;1265;-55
2023/09/28 02:07:04;;;;;;;;;;;;;;;17.32;65.65;95391.53;5115162;28;1906;-55
2023/09/28 02:09:30;;;;;;;;;;;;;;;17.60;64.47;95392.53;5096744;28;1055;-55
2023/09/28 02:11:56;;;;;;;;;;;;;;;17.70;63.84;95383.03;5096945;28;937;-54
2023/09/28 02:14:23;;;;;;;;;;;;;;;17.75;63.92;95388.66;5114751;28;1181;-55
2023/09/28 02:16:50;;;;;;;;;;;;;;;17.65;64.18;95379.25;5114689;28;1115;-55
2023/09/28 02:19:16;;;;;;;;;;;;;;;17.05;66.90;95387.75;5114937;28;961;-54
2023/09/28 02:21:43;;;;;;;;;;;;;;;16.62;68.72;95379.69;5114711;28;1028;-55
2023/09/28 02:24:09;;;;;;;;;;;;;;;16.46;70.17;95385.34;5114841;28;1040;-55
2023/09/28 02:26:35;;;;;;;;;;;;;;;16.46;70.34;95379.94;5114615;28;1983;-55
2023/09/28 02:29:02;;;;;;;;;;;;;;;16.32;71.04;95379.78;5114560;28;1103;-55
2023/09/28 02:31:28;;;;;;;;;;;;;;;16.15;72.29;95394.56;5114355;28;948;-55
2023/09/28 02:33:54;;;;;;;;;;;;;;;16.28;71.27;95383.91;5114757;28;1003;-55
2023/09/28 02:36:21;;;;;;;;;;;;;;;16.33;70.70;95388.72;5114663;28;988;-54
2023/09/28 02:38:47;;;;;;;;;;;;;;;16.28;71.70;95388.47;5114567;28;1036;-53
2023/09/28 02:41:20;;;;;;;;;;;;;;;16.25;71.76;95395.06;5114582;28;953;-54
2023/09/28 02:43:46;;;;;;;;;;;;;;;16.10;72.43;95383.47;5114313;28;972;-55
2023/09/28 02:46:13;;;;;;;;;;;;;;;15.84;73.76;95392.06;5114347;28;1984;-54
2023/09/28 02:48:39;;;;;;;;;;;;;;;15.56;75.35;95390.88;5113846;28;1044;-55
2023/09/28 02:51:07;;;;;;;;;;;;;;;15.73;74.74;95390.69;5114490;28;961;-55
2023/09/28 02:53:35;;;;;;;;;;;;;;;15.80;74.84;95392.47;5114184;28;1031;-55
2023/09/28 02:56:01;;;;;;;;;;;;;;;15.59;75.27;95395.91;5114410;28;957;-55
2023/09/28 02:58:27;;;;;;;;;;;;;;;15.48;75.90;95392.81;5101450;27;1221;-55
2023/09/28 03:00:53;;;;;;;;;;;;;;;15.63;75.58;95393.63;5134533;27;1043;-55
2023/09/28 03:03:19;;;;;;;;;;;;;;;15.86;74.41;95398.13;5134756;27;999;-55
2023/09/28 03:05:45;;;;;;;;;;;;;;;15.46;75.40;95403.78;5134417;27;1974;-55
2023/09/28 03:08:12;;;;;;;;;;;;;;;15.06;77.30;95405.03;5134418;27;1060;-54
2023/09/28 03:10:43;;;;;;;;;;;;;;;15.12;77.66;95404.28;5134736;27;1139;-54
2023/09/28 03:13:11;;;;;;;;;;;;;;;15.34;76.10;95400.69;5134684;27;985;-54
2023/09/28 03:15:40;;;;;;;;;;;;;;;15.52;75.29;95399.53;5134639;27;1055;-54
2023/09/28 03:18:07;;;;;;;;;;;;;;;15.73;74.56;95410.41;5134533;27;1023;-54
2023/09/28 03:20:32;;;;;;;;;;;;;;;15.64;74.93;95402.59;5134250;28;1080;-54
2023/09/28 03:22:59;;;;;;;;;;;;;;;15.67;74.66;95403.06;5134569;28;1016;-54
2023/09/28 03:25:24;;;;;;;;;;;;;;;15.75;74.60;95400.28;5134225;28;1917;-54
2023/09/28 03:27:51;;;;;;;;;;;;;;;15.52;76.02;95411.13;5134539;28;1010;-54
2023/09/28 03:30:18;;;;;;;;;;;;;;;15.48;75.92;95399.06;5134344;28;1048;-54
2023/09/28 03:32:46;;;;;;;;;;;;;;;15.59;75.96;95405.81;5116245;28;1037;-54
2023/09/28 03:35:13;;;;;;;;;;;;;;;15.50;75.93;95415.88;5133852;28;1056;-54
2023/09/28 03:37:40;;;;;;;;;;;;;;;15.56;75.35;95409.72;5132788;28;2745;-54
2023/09/28 03:40:12;;;;;;;;;;;;;;;15.68;74.47;95411.97;5134383;28;1021;-54
2023/09/28 03:42:39;;;;;;;;;;;;;;;15.64;74.40;95416.88;5115824;28;977;-54
2023/09/28 03:45:08;;;;;;;;;;;;;;;15.69;73.99;95416.31;5134349;28;1027;-54
2023/09/28 03:47:37;;;;;;;;;;;;;;;15.58;74.74;95417.63;5134293;27;1980;-53
2023/09/28 03:50:04;;;;;;;;;;;;;;;15.52;74.94;95415.69;5133996;28;1068;-54
2023/09/28 03:52:30;;;;;;;;;;;;;;;15.71;74.28;95417.00;5134169;28;980;-55
2023/09/28 03:54:56;;;;;;;;;;;;;;;16.17;69.56;95414.91;5133927;28;1044;-55
2023/09/28 03:57:22;;;;;;;;;;;;;;;16.48;68.71;95416.47;5133878;27;1036;-54
2023/09/28 03:59:48;;;;;;;;;;;;;;;16.77;66.96;95420.13;5136636;27;1216;-55
2023/09/28 04:02:14;;;;;;;;;;;;;;;16.88;67.54;95416.91;5137932;27;1051;-54
2023/09/28 04:04:40;;;;;;;;;;;;;;;17.27;64.56;95423.69;5138036;27;1199;-54
2023/09/28 04:07:07;;;;;;;;;;;;;;;17.33;64.45;95420.19;5137907;27;1974;-54
2023/09/28 04:09:34;;;;;;;;;;;;;;;17.35;63.65;95417.31;5138024;27;953;-54
2023/09/28 04:12:00;;;;;;;;;;;;;;;17.05;66.59;95422.06;5137730;27;979;-55
2023/09/28 04:14:27;;;;;;;;;;;;;;;16.61;68.32;95426.59;5137889;27;1052;-55
2023/09/28 04:16:54;;;;;;;;;;;;;;;16.56;68.54;95424.47;5138035;27;909;-55
2023/09/28 04:19:20;;;;;;;;;;;;;;;16.48;69.17;95424.59;5137647;27;961;-55
2023/09/28 04:21:46;;;;;;;;;;;;;;;16.57;67.61;95418.03;5137594;27;1103;-56
2023/09/28 04:24:12;;;;;;;;;;;;;;;16.67;67.55;95419.59;5137543;27;957;-55
2023/09/28 04:26:38;;;;;;;;;;;;;;;16.65;68.65;95422.47;5137391;27;1914;-55
2023/09/28 04:29:04;;;;;;;;;;;;;;;16.70;68.08;95414.66;5137822;27;1021;-55
2023/09/28 04:31:30;;;;;;;;;;;;;;;16.87;67.05;95417.97;5137576;27;1043;-55
2023/09/28 04:33:57;;;;;;;;;;;;;;;16.97;66.66;95425.72;5137368;27;1059;-55
2023/09/28 04:36:24;;;;;;;;;;;;;;;17.02;66.22;95423.28;5137357;27;1022;-54
2023/09/28 04:38:50;;;;;;;;;;;;;;;16.95;67.24;95425.09;5137342;27;962;-55
2023/09/28 04:41:17;;;;;;;;;;;;;;;16.62;68.75;95420.19;5137094;27;992;-55
2023/09/28 04:43:43;;;;;;;;;;;;;;;16.38;70.60;95424.91;5137434;27;1037;-55
2023/09/28 04:46:09;;;;;;;;;;;;;;;16.46;69.57;95428.50;5137483;27;1909;-55
2023/09/28 04:48:35;;;;;;;;;;;;;;;16.71;67.87;95432.53;5137235;27;1952;-55
2023/09/28 04:51:03;;;;;;;;;;;;;;;16.76;68.03;95432.78;5137562;27;1015;-54
2023/09/28 04:53:29;;;;;;;;;;;;;;;16.71;69.85;95432.53;5137016;27;1064;-55
2023/09/28 04:55:56;;;;;;;;;;;;;;;16.65;70.32;95432.44;5137149;27;973;-54
2023/09/28 04:58:22;;;;;;;;;;;;;;;16.86;68.51;95437.88;5136994;27;1161;-54
2023/09/28 05:00:48;;;;;;;;;;;;;;;17.20;64.88;95435.47;5136778;27;1080;-54
2023/09/28 05:03:14;;;;;;;;;;;;;;;17.49;64.11;95450.66;5136692;27;1052;-55
2023/09/28 05:05:39;;;;;;;;;;;;;;;17.66;62.06;95452.06;5136627;27;1909;-56
2023/09/28 05:08:05;;;;;;;;;;;;;;;17.90;61.09;95444.53;5136652;27;1053;-56
2023/09/28 05:10:31;;;;;;;;;;;;;;;17.97;63.23;95448.09;5135772;27;1040;-56
2023/09/28 05:12:58;;;;;;;;;;;;;;;17.94;61.95;95443.09;5136834;27;1043;-56
2023/09/28 05:15:24;;;;;;;;;;;;;;;18.07;60.60;95453.97;5136418;27;1131;-55
2023/09/28 05:17:50;;;;;;;;;;;;;;;18.18;61.55;95449.88;5136881;27;1011;-55
2023/09/28 05:20:16;;;;;;;;;;;;;;;18.31;59.61;95449.09;5136680;27;1056;-56
2023/09/28 05:22:43;;;;;;;;;;;;;;;18.48;59.62;95452.28;5136743;27;1061;-56
2023/09/28 05:25:09;;;;;;;;;;;;;;;18.59;59.19;95446.28;5136359;27;1019;-56
2023/09/28 05:27:35;;;;;;;;;;;;;;;18.70;58.89;95442.13;5136547;27;1909;-56
2023/09/28 05:30:02;;;;;;;;;;;;;;;18.81;59.22;95451.56;5136286;27;1088;-56
2023/09/28 05:32:28;;;;;;;;;;;;;;;18.90;59.65;95451.19;5136278;27;1003;-55
2023/09/28 05:34:54;;;;;;;;;;;;;;;19.00;58.53;95458.06;5136325;27;1052;-56
2023/09/28 05:37:20;;;;;;;;;;;;;;;18.99;58.46;95453.69;5136087;27;1047;-56
2023/09/28 05:39:46;;;;;;;;;;;;;;;19.07;57.32;95448.09;5136075;27;1008;-56
2023/09/28 05:42:12;;;;;;;;;;;;;;;19.18;57.27;95450.19;5136220;27;1044;-56
2023/09/28 05:44:39;;;;;;;;;;;;;;;19.65;56.30;95445.59;5136155;27;1037;-56
2023/09/28 05:47:05;;;;;;;;;;;;;;;20.50;54.24;95452.88;5136156;27;1921;-54
2023/09/28 05:49:31;;;;;;;;;;;;;;;21.83;48.79;95459.31;5136092;27;1133;-56
2023/09/28 05:51:57;;;;;;;;;;;;;;;22.75;46.09;95473.00;5135921;27;954;-56
2023/09/28 05:54:23;;;;;;;;;;;;;;;23.14;47.80;95465.34;5135568;27;1102;-56
2023/09/28 05:56:49;;;;;;;;;;;;;;;23.04;46.95;95476.00;5136369;27;1007;-57
2023/09/28 05:59:15;;;;;;;;;;;;;;;23.12;46.39;95480.28;5123379;27;1209;-56
2023/09/28 06:01:41;;;;;;;;;;;;;;;22.72;46.65;95476.16;5115381;28;972;-57
2023/09/28 06:04:07;;;;;;;;;;;;;;;22.00;47.60;95467.75;5115077;28;944;-56
2023/09/28 06:06:33;;;;;;;;;;;;;;;21.54;49.61;95458.97;5114657;28;1918;-56
2023/09/28 06:08:59;;;;;;;;;;;;;;;21.15;50.16;95466.34;5114894;28;1036;-57
2023/09/28 06:11:25;;;;;;;;;;;;;;;20.97;49.74;95460.81;5111444;27;2566;-57
2023/09/28 06:13:51;;;;;;;;;;;;;;;20.92;51.95;95466.06;5135734;27;1024;-57
2023/09/28 06:16:18;;;;;;;;;;;;;;;20.94;51.04;95467.50;5135508;27;971;-57
2023/09/28 06:18:44;;;;;;;;;;;;;;;21.07;51.18;95472.03;5135337;27;1029;-57
2023/09/28 06:21:10;;;;;;;;;;;;;;;21.12;50.43;95466.78;5135541;27;1147;-57
2023/09/28 06:23:36;;;;;;;;;;;;;;;21.06;51.84;95468.50;5134154;27;1068;-57
2023/09/28 06:26:02;;;;;;;;;;;;;;;21.13;50.17;95467.59;5135583;27;1985;-58
2023/09/28 06:28:28;;;;;;;;;;;;;;;21.30;50.66;95471.44;5135329;27;957;-56
2023/09/28 06:30:55;;;;;;;;;;;;;;;21.47;49.78;95465.50;5135345;27;1015;-57
2023/09/28 06:33:26;;;;;;;;;;;;;;;21.51;49.05;95475.72;5134994;27;1129;-57
2023/09/28 06:35:54;;;;;;;;;;;;;;;21.49;50.88;95464.22;5135038;27;1247;-55
2023/09/28 06:38:20;;;;;;;;;;;;;;;21.72;48.17;95471.81;5134842;27;1092;-54
2023/09/28 06:40:48;;;;;;;;;;;;;;;21.80;47.96;95476.13;5135191;27;1024;-54
2023/09/28 06:43:15;;;;;;;;;;;;;;;21.79;47.31;95472.53;5134790;27;1064;-53
2023/09/28 06:45:41;;;;;;;;;;;;;;;21.89;47.75;95479.38;5134149;27;2501;-58
2023/09/28 06:48:07;;;;;;;;;;;;;;;22.14;47.84;95479.31;5134443;27;3204;-57
2023/09/28 06:50:39;;;;;;;;;;;;;;;22.40;47.43;95489.13;5134696;27;974;-57
2023/09/28 06:53:06;;;;;;;;;;;;;;;22.50;47.61;95481.28;5134979;27;1073;-57
2023/09/28 06:55:32;;;;;;;;;;;;;;;22.74;46.41;95479.50;5134767;27;995;-53
2023/09/28 06:57:58;;;;;;;;;;;;;;;22.92;45.65;95481.38;5134781;27;1166;-53
2023/09/28 07:00:24;;;;;;;;;;;;;;;23.02;44.93;95486.28;5125850;27;2476;-53
2023/09/28 07:03:55;;;;;;;;;;;;;;;22.84;44.97;95483.56;5132003;27;1302881;-54
2023/09/28 07:06:21;;;;;;;;;;;;;;;22.71;45.49;95485.41;5173284;27;995;-54
2023/09/28 07:08:47;;;;;;;;;;;;;;;22.89;45.83;95497.34;5173336;27;1036;-55
2023/09/28 07:11:14;;;;;;;;;;;;;;;23.15;46.29;95483.38;5173022;27;1052;-55
2023/09/28 07:13:40;;;;;;;;;;;;;;;23.36;44.09;95490.22;5173236;27;1028;-55
2023/09/28 07:16:07;;;;;;;;;;;;;;;23.41;44.91;95489.53;5173355;27;1195;-55
2023/09/28 07:18:34;;;;;;;;;;;;;;;23.56;43.63;95489.91;5173194;27;1043;-54
2023/09/28 07:21:00;;;;;;;;;;;;;;;23.66;45.20;95481.13;5173160;27;1064;-55
2023/09/28 07:23:26;;;;;;;;;;;;;;;23.90;43.11;95492.09;5172722;27;1998;-52
2023/09/28 07:25:52;;;;;;;;;;;;;;;23.80;43.74;95487.22;5172848;27;1099;-52
2023/09/28 07:28:20;;;;;;;;;;;;;;;23.69;43.42;95485.28;5154556;27;959;-52
2023/09/28 07:30:46;;;;;;;;;;;;;;;23.74;43.15;95488.97;5173018;27;928;-52
2023/09/28 07:33:15;;;;;;;;;;;;;;;23.64;44.02;95482.41;5172558;27;1298;-52
2023/09/28 07:35:44;;;;;;;;;;;;;;;23.81;43.16;95488.91;5172788;27;999;-54
2023/09/28 07:38:10;;;;;;;;;;;;;;;23.79;42.86;95499.25;5172767;27;1148;-54
2023/09/28 07:40:37;;;;;;;;;;;;;;;23.89;42.92;95496.75;5163943;27;2489;-55
2023/09/28 07:43:03;;;;;;;;;;;;;;;24.10;43.82;95495.31;5151519;27;1917;-54
2023/09/28 07:45:30;;;;;;;;;;;;;;;24.05;43.96;95488.91;5151837;27;956;-54
2023/09/28 07:47:56;;;;;;;;;;;;;;;24.28;44.45;95493.53;5151714;27;957;-54
2023/09/28 07:50:22;;;;;;;;;;;;;;;24.48;43.43;95493.97;5151795;27;1000;-52
2023/09/28 07:52:48;;;;;;;;;;;;;;;24.65;42.79;95491.38;5151612;27;1054;-52
2023/09/28 07:55:14;;;;;;;;;;;;;;;24.70;42.89;95491.47;5151639;27;1042;-52
2023/09/28 07:57:41;;;;;;;;;;;;;;;24.68;41.83;95487.31;5151611;27;1035;-51
2023/09/28 08:00:07;;;;;;;;;;;;;;;24.62;42.81;95491.84;5151467;27;1161;-51
2023/09/28 08:02:33;;;;;;;;;;;;;;;24.59;42.23;95496.97;5150982;27;1988;-52
2023/09/28 08:05:01;;;;;;;;;;;;;;;24.51;42.40;95500.84;5151290;27;1088;-52
2023/09/28 08:07:30;;;;;;;;;;;;;;;24.46;42.38;95500.75;5151438;27;975;-51
2023/09/28 08:09:56;;;;;;;;;;;;;;;24.46;42.37;95496.13;5151483;27;1035;-51
2023/09/28 08:12:22;;;;;;;;;;;;;;;24.52;42.62;95499.84;5150982;27;1028;-51
2023/09/28 08:14:48;;;;;;;;;;;;;;;24.63;42.50;95490.78;5140471;27;1029;-51
2023/09/28 08:17:14;;;;;;;;;;;;;;;24.71;41.66;95497.78;5137139;27;1056;-54
2023/09/28 08:19:40;;;;;;;;;;;;;;;24.78;41.56;95492.19;5137160;27;1031;-54
2023/09/28 08:22:06;;;;;;;;;;;;;;;24.86;43.27;95487.16;5137239;27;1913;-53
2023/09/28 08:24:32;;;;;;;;;;;;;;;25.12;42.24;95487.66;5136963;27;1071;-53
2023/09/28 08:26:58;;;;;;;;;;;;;;;25.38;42.41;95478.03;5137259;27;993;-51
2023/09/28 08:29:24;;;;;;;;;;;;;;;25.49;40.74;95484.50;5137128;27;968;-51
2023/09/28 08:31:51;;;;;;;;;;;;;;;25.76;40.96;95487.44;5137113;27;920;-51
2023/09/28 08:34:17;;;;;;;;;;;;;;;25.85;41.45;95480.47;5136873;27;1032;-51
2023/09/28 08:36:44;;;;;;;;;;;;;;;25.85;40.14;95482.38;5136960;27;993;-51
2023/09/28 08:39:10;;;;;;;;;;;;;;;25.78;39.74;95485.31;5136866;27;979;-51
2023/09/28 08:41:36;;;;;;;;;;;;;;;25.88;40.18;95476.41;5136612;27;1918;-53
2023/09/28 08:44:04;;;;;;;;;;;;;;;26.07;39.67;95479.75;5136955;27;1000;-53
2023/09/28 08:46:38;;;;;;;;;;;;;;;25.62;40.58;95477.91;5136733;27;933;-53
2023/09/28 08:49:05;;;;;;;;;;;;;;;25.33;40.75;95472.47;5136988;27;965;-52
2023/09/28 08:51:32;;;;;;;;;;;;;;;25.77;41.42;95466.38;5136569;27;1048;-52
2023/09/28 08:53:59;;;;;;;;;;;;;;;26.37;39.09;95481.25;5136468;27;1103;-53
2023/09/28 08:56:25;;;;;;;;;;;;;;;26.60;40.18;95467.38;5136388;27;1021;-53
2023/09/28 08:58:52;;;;;;;;;;;;;;;26.79;38.17;95478.03;5109458;28;1229;-53
2023/09/28 09:01:18;;;;;;;;;;;;;;;26.66;39.81;95469.09;5116061;28;976;-53
2023/09/28 09:03:45;;;;;;;;;;;;;;;26.73;39.75;95466.16;5115684;28;1976;-54
2023/09/28 09:06:12;;;;;;;;;;;;;;;26.81;38.43;95467.63;5115661;28;1036;-53
2023/09/28 09:08:42;;;;;;;;;;;;;;;26.70;39.92;95465.84;5115848;28;1013;-53
2023/09/28 09:11:10;;;;;;;;;;;;;;;26.37;39.29;95473.03;5115903;28;941;-53
2023/09/28 09:13:47;;;;;;;;;;;;;;;26.28;38.47;95470.75;5115822;28;1036;-53
2023/09/28 09:16:14;;;;;;;;;;;;;;;26.38;40.03;95466.50;5115781;28;972;-53
2023/09/28 09:18:41;;;;;;;;;;;;;;;26.29;39.69;95469.66;5097326;28;1104;-53
2023/09/28 09:21:07;;;;;;;;;;;;;;;26.34;39.10;95470.81;5115401;28;1129;-53
2023/09/28 09:23:33;;;;;;;;;;;;;;;26.25;41.10;95463.00;5115466;28;1901;-54
2023/09/28 09:25:59;;;;;;;;;;;;;;;25.96;40.15;95451.38;5114341;28;1040;-53
2023/09/28 09:28:27;;;;;;;;;;;;;;;26.18;38.88;95454.16;5115411;28;1027;-54
2023/09/28 09:30:53;;;;;;;;;;;;;;;26.01;40.51;95454.19;5115500;28;1065;-54
2023/09/28 09:33:19;;;;;;;;;;;;;;;26.35;39.38;95450.53;5115022;28;1111;-54
2023/09/28 09:35:45;;;;;;;;;;;;;;;26.57;39.46;95445.06;5115437;28;984;-53
2023/09/28 09:38:12;;;;;;;;;;;;;;;27.06;38.73;95451.44;5115244;28;988;-54
2023/09/28 09:40:38;;;;;;;;;;;;;;;27.10;39.19;95445.44;5115228;28;1045;-54
2023/09/28 09:43:04;;;;;;;;;;;;;;;27.35;37.66;95436.66;5115117;28;1897;-54
2023/09/28 09:45:30;;;;;;;;;;;;;;;27.35;37.89;95442.97;5113366;28;2488;-54
2023/09/28 09:47:58;;;;;;;;;;;;;;;27.31;39.03;95433.63;5095577;28;2656;-54
2023/09/28 09:50:24;;;;;;;;;;;;;;;27.31;38.71;95441.84;5094363;28;969;-54
2023/09/28 09:52:51;;;;;;;;;;;;;;;27.27;38.78;95429.72;5094691;28;930;-54
2023/09/28 09:55:17;;;;;;;;;;;;;;;26.73;39.11;95444.22;5103524;28;2472;-54
2023/09/28 09:57:46;;;;;;;;;;;;;;;26.08;39.80;95440.28;5114868;28;1036;-55
2023/09/28 10:00:15;;;;;;;;;;;;;;;25.91;40.74;95432.06;5114771;28;1158;-55
2023/09/28 10:02:42;;;;;;;;;;;;;;;25.93;41.27;95427.19;5115911;27;1992;-55
2023/09/28 10:05:09;;;;;;;;;;;;;;;26.37;40.11;95435.50;5135205;27;1015;-55
2023/09/28 10:07:36;;;;;;;;;;;;;;;26.63;39.72;95425.72;5135357;27;928;-55
2023/09/28 10:10:03;;;;;;;;;;;;;;;26.43;39.67;95419.97;5135295;27;964;-55
2023/09/28 10:12:30;;;;;;;;;;;;;;;26.18;40.16;95425.91;5135205;27;1044;-55
2023/09/28 10:14:58;;;;;;;;;;;;;;;26.41;39.16;95435.84;5119296;27;2483;-55
2023/09/28 10:17:25;;;;;;;;;;;;;;;26.83;38.19;95414.16;5114317;28;1083;-54
2023/09/28 10:19:56;;;;;;;;;;;;;;;27.03;37.90;95420.94;5114259;28;1033;-55
2023/09/28 10:22:23;;;;;;;;;;;;;;;26.75;39.15;95420.13;5114096;28;1938;-54
2023/09/28 10:24:49;;;;;;;;;;;;;;;26.37;39.71;95418.22;5114429;28;1037;-55
2023/09/28 10:27:15;;;;;;;;;;;;;;;25.95;40.43;95416.00;5114444;28;1059;-55
2023/09/28 10:29:41;;;;;;;;;;;;;;;25.45;40.17;95420.41;5114170;28;1854;-55
2023/09/28 10:32:27;;;;;;;;;;;;;;;25.34;42.13;95408.44;5114121;28;1040;-55
2023/09/28 10:35:13;;;;;;;;;;;;;;;25.16;42.79;95401.28;5114427;28;1001;-54
2023/09/28 10:37:39;;;;;;;;;;;;;;;25.11;42.26;95404.72;5113793;28;1056;-54
2023/09/28 10:40:06;;;;;;;;;;;;;;;25.11;41.81;95402.00;5113965;28;1056;-54
2023/09/28 10:42:32;;;;;;;;;;;;;;;25.17;43.58;95397.44;5113751;28;1902;-55
2023/09/28 10:45:00;;;;;;;;;;;;;;;25.26;43.57;95395.19;5114155;28;1000;-55
2023/09/28 10:47:30;;;;;;;;;;;;;;;25.43;43.29;95396.00;5113815;28;1032;-55
2023/09/28 10:50:01;;;;;;;;;;;;;;;25.55;43.00;95400.56;5095748;28;1231;-54
2023/09/28 10:52:28;;;;;;;;;;;;;;;25.85;42.60;95398.28;5113778;28;1055;-54
2023/09/28 10:54:55;;;;;;;;;;;;;;;26.20;42.00;95405.41;5095602;28;1942;-54
2023/09/28 10:57:31;;;;;;;;;;;;;;;26.26;41.12;95404.38;5113705;28;977;-54
2023/09/28 11:00:06;;;;;;;;;;;;;;;26.09;41.38;95414.56;5131645;27;1213;-55
2023/09/28 11:02:36;;;;;;;;;;;;;;;26.23;41.17;95402.16;5134336;28;2016;-55
2023/09/28 11:05:07;;;;;;;;;;;;;;;26.56;40.41;95405.03;5134349;28;1032;-54
2023/09/28 11:07:33;;;;;;;;;;;;;;;26.25;40.94;95405.47;5134035;28;1254;-55
2023/09/28 11:09:59;;;;;;;;;;;;;;;25.87;40.91;95401.63;5134452;28;1000;-54
2023/09/28 11:12:31;;;;;;;;;;;;;;;25.57;41.40;95392.94;5134420;28;1003;-54
2023/09/28 11:14:58;;;;;;;;;;;;;;;25.32;41.70;95388.69;5134480;28;967;-54
2023/09/28 11:17:24;;;;;;;;;;;;;;;25.51;41.59;95389.28;5134105;28;1023;-54
2023/09/28 11:19:50;;;;;;;;;;;;;;;25.72;41.00;95393.16;5134121;28;1055;-54
2023/09/28 11:22:18;;;;;;;;;;;;;;;25.79;40.56;95388.34;5134307;28;1983;-54
2023/09/28 11:24:45;;;;;;;;;;;;;;;25.71;40.03;95389.63;5130800;27;2588;-54
2023/09/28 11:27:11;;;;;;;;;;;;;;;25.57;41.70;95384.72;5134031;28;1099;-53
2023/09/28 11:29:39;;;;;;;;;;;;;;;25.54;40.86;95386.06;5134231;28;961;-53
2023/09/28 11:32:05;;;;;;;;;;;;;;;25.48;42.65;95385.16;5134001;28;1060;-54
2023/09/28 11:34:33;;;;;;;;;;;;;;;25.63;42.19;95384.56;5133933;28;1063;-54
2023/09/28 11:36:59;;;;;;;;;;;;;;;25.97;41.77;95387.28;5134068;28;1083;-53
2023/09/28 11:39:26;;;;;;;;;;;;;;;26.02;39.97;95387.34;5115886;28;976;-53
2023/09/28 11:41:58;;;;;;;;;;;;;;;25.93;40.65;95382.56;5134109;28;1992;-53
2023/09/28 11:44:26;;;;;;;;;;;;;;;25.56;42.04;95378.44;5133961;28;1048;-54
2023/09/28 11:46:53;;;;;;;;;;;;;;;25.44;41.98;95385.88;5134200;28;962;-54
2023/09/28 11:49:20;;;;;;;;;;;;;;;25.28;42.48;95377.41;5135537;27;999;-54
2023/09/28 11:51:46;;;;;;;;;;;;;;;25.20;42.81;95374.25;5137707;27;1007;-53
2023/09/28 11:54:13;;;;;;;;;;;;;;;25.14;42.97;95376.91;5137717;27;1958;-53
2023/09/28 11:56:39;;;;;;;;;;;;;;;25.20;42.72;95380.53;5136300;27;2627;-53
2023/09/28 11:59:07;;;;;;;;;;;;;;;25.31;41.37;95381.59;5137569;27;1180;-54
2023/09/28 12:01:32;;;;;;;;;;;;;;;25.52;41.87;95375.34;5137809;27;969;-53
2023/09/28 12:03:59;;;;;;;;;;;;;;;25.99;41.33;95384.28;5137296;27;1905;-54
2023/09/28 12:06:25;;;;;;;;;;;;;;;26.34;41.63;95377.63;5137408;27;1932;-54
2023/09/28 12:08:52;;;;;;;;;;;;;;;26.52;41.18;95380.03;5137626;27;1032;-54
2023/09/28 12:11:18;;;;;;;;;;;;;;;26.47;39.79;95382.72;5137542;27;984;-53
2023/09/28 12:13:44;;;;;;;;;;;;;;;26.20;40.66;95379.91;5137505;27;979;-54
2023/09/28 12:16:11;;;;;;;;;;;;;;;26.07;39.89;95383.88;5137365;27;1043;-53
2023/09/28 12:18:37;;;;;;;;;;;;;;;26.08;39.80;95385.50;5137283;27;1123;-54
2023/09/28 12:21:03;;;;;;;;;;;;;;;26.12;40.97;95381.16;5109495;28;2579;-53
2023/09/28 12:23:29;;;;;;;;;;;;;;;25.97;40.04;95383.69;5116679;28;1918;-53
2023/09/28 12:25:55;;;;;;;;;;;;;;;25.74;40.54;95369.09;5116877;28;1042;-54
2023/09/28 12:28:22;;;;;;;;;;;;;;;25.85;41.40;95370.09;5116620;28;1051;-54
2023/09/28 12:30:48;;;;;;;;;;;;;;;25.87;41.89;95370.66;5116560;28;1031;-54
2023/09/28 12:33:14;;;;;;;;;;;;;;;25.73;42.80;95366.63;5116313;28;1049;-53
2023/09/28 12:35:40;;;;;;;;;;;;;;;25.46;40.42;95364.56;5116551;28;977;-53
2023/09/28 12:38:07;;;;;;;;;;;;;;;25.39;39.50;95369.41;5116338;28;1861;-53
2023/09/28 12:40:34;;;;;;;;;;;;;;;25.36;40.43;95372.63;5130881;27;3056;-53
2023/09/28 12:43:01;;;;;;;;;;;;;;;25.31;41.75;95363.25;5136976;27;1914;-54
2023/09/28 12:45:30;;;;;;;;;;;;;;;25.40;42.38;95362.81;5136604;27;1036;-54
2023/09/28 12:47:57;;;;;;;;;;;;;;;25.45;43.59;95357.44;5135040;27;2488;-54
2023/09/28 12:50:23;;;;;;;;;;;;;;;25.39;41.02;95359.28;5136516;27;1024;-54
2023/09/28 12:52:49;;;;;;;;;;;;;;;25.39;42.04;95356.53;5136567;27;1122;-54
2023/09/28 12:55:15;;;;;;;;;;;;;;;25.32;43.32;95350.41;5124963;27;2506;-53
2023/09/28 12:57:41;;;;;;;;;;;;;;;25.30;43.80;95345.16;5116275;28;1217;-53
2023/09/28 13:00:08;;;;;;;;;;;;;;;25.29;42.70;95348.19;5135167;27;1244;-54